createdAt,value
2023-01-02T00:01:01.168Z,10.30
2023-01-02T00:03:28.191Z,10.30
2023-01-02T00:05:55.199Z,10.40
2023-01-02T00:08:22.315Z,10.40
2023-01-02T00:10:52.725Z,10.40
2023-01-02T00:13:19.896Z,10.40
2023-01-02T00:15:46.889Z,10.40
2023-01-02T00:18:13.735Z,10.40
2023-01-02T00:20:40.585Z,10.30
2023-01-02T00:23:07.498Z,10.30
2023-01-02T00:25:34.936Z,10.30
2023-01-02T00:28:02.318Z,10.30
2023-01-02T00:30:35.726Z,10.40
2023-01-02T00:33:04.836Z,10.60
2023-01-02T00:35:31.724Z,10.30
2023-01-02T00:37:58.601Z,10.30
2023-01-02T00:40:25.407Z,10.30
2023-01-02T00:42:52.214Z,10.30
2023-01-02T00:45:19.032Z,10.20
2023-01-02T00:47:45.843Z,10.30
2023-01-02T00:50:12.813Z,10.20
2023-01-02T00:52:39.628Z,10.30
2023-01-02T00:55:06.729Z,10.20
2023-01-02T00:57:33.579Z,10.10
2023-01-02T01:00:00.392Z,10.10
2023-01-02T01:02:27.488Z,10.20
2023-01-02T01:04:54.323Z,10.20
2023-01-02T01:07:21.140Z,10.30
2023-01-02T01:09:47.963Z,10.20
2023-01-02T01:12:14.811Z,10.20
2023-01-02T01:14:41.627Z,10.20
2023-01-02T01:17:08.460Z,10.10
2023-01-02T01:19:36.077Z,10.10
2023-01-02T01:22:03.468Z,10.20
2023-01-02T01:24:31.090Z,10.20
2023-01-02T01:26:57.936Z,10.30
2023-01-02T01:29:24.818Z,10.20
2023-01-02T01:31:51.814Z,10.20
2023-01-02T01:34:18.797Z,10.20
2023-01-02T01:36:45.661Z,10.30
2023-01-02T01:39:12.435Z,10.30
2023-01-02T01:41:39.309Z,10.10
2023-01-02T01:44:40.432Z,10.10
2023-01-02T01:47:17.540Z,10.00
2023-01-02T01:49:45.643Z,10.10
2023-01-02T01:52:17.624Z,10.10
2023-01-02T01:54:51.368Z,10.00
2023-01-02T01:57:28.267Z,10.00
2023-01-02T01:59:56.881Z,10.10
2023-01-02T02:02:25.125Z,10.10
2023-01-02T02:04:52.437Z,10.30
2023-01-02T02:07:19.421Z,10.10
2023-01-02T02:09:56.300Z,10.00
2023-01-02T02:12:28.040Z,10.20
2023-01-02T02:14:55.320Z,10.20
2023-01-02T02:17:49.928Z,10.10
2023-01-02T02:20:44.264Z,10.00
2023-01-02T02:23:20.045Z,10.00
2023-01-02T02:25:56.004Z,10.00
2023-01-02T02:29:00.808Z,10.00
2023-01-02T02:31:52.154Z,10.00
2023-01-02T02:34:43.764Z,10.00
2023-01-02T02:37:22.106Z,10.00
2023-01-02T02:40:17.029Z,10.00
2023-01-02T02:43:03.095Z,9.90
2023-01-02T02:46:04.412Z,9.90
2023-01-02T02:48:40.557Z,10.00
2023-01-02T02:51:24.059Z,10.00
2023-01-02T02:53:59.845Z,10.00
2023-01-02T02:56:28.706Z,10.00
2023-01-02T02:58:56.299Z,10.00
2023-01-02T03:01:30.664Z,10.00
2023-01-02T03:03:58.251Z,9.90
2023-01-02T03:06:45.968Z,10.00
2023-01-02T03:09:22.813Z,10.00
2023-01-02T03:12:30.647Z,10.10
2023-01-02T03:15:08.979Z,10.00
2023-01-02T03:17:55.057Z,10.00
2023-01-02T03:20:28.269Z,10.10
2023-01-02T03:23:01.204Z,10.00
2023-01-02T03:25:28.932Z,10.10
2023-01-02T03:27:58.229Z,10.00
2023-01-02T03:30:25.231Z,10.00
2023-01-02T03:33:00.222Z,10.10
2023-01-02T03:35:40.802Z,10.10
2023-01-02T03:38:15.385Z,10.10
2023-01-02T03:40:50.503Z,10.10
2023-01-02T03:43:26.198Z,10.10
2023-01-02T03:46:18.970Z,10.10
2023-01-02T03:48:57.558Z,10.20
2023-01-02T03:51:24.398Z,10.20
2023-01-02T03:53:53.024Z,10.20
2023-01-02T03:56:27.149Z,10.30
2023-01-02T03:59:00.123Z,10.20
2023-01-02T04:02:07.817Z,10.20
2023-01-02T04:04:34.615Z,10.30
2023-01-02T04:07:04.462Z,10.30
2023-01-02T04:09:33.755Z,10.40
2023-01-02T04:12:07.772Z,10.40
2023-01-02T04:14:59.430Z,10.40
2023-01-02T04:17:31.408Z,10.40
2023-01-02T04:20:07.825Z,10.30
2023-01-02T04:22:47.740Z,10.40
2023-01-02T04:25:17.260Z,10.30
2023-01-02T04:27:56.240Z,10.50
2023-01-02T04:30:23.188Z,10.50
2023-01-02T04:32:51.129Z,10.50
2023-01-02T04:35:21.271Z,10.50
2023-01-02T04:37:48.233Z,10.50
2023-01-02T04:40:25.743Z,10.50
2023-01-02T04:42:53.002Z,10.60
2023-01-02T04:45:19.980Z,10.70
2023-01-02T04:47:50.940Z,10.60
2023-01-02T04:50:17.831Z,10.60
2023-01-02T04:52:44.720Z,10.60
2023-01-02T04:55:11.621Z,10.60
2023-01-02T04:57:38.729Z,10.70
2023-01-02T05:00:07.472Z,10.70
2023-01-02T05:02:39.097Z,10.70
2023-01-02T05:05:07.699Z,10.80
2023-01-02T05:07:35.496Z,10.80
2023-01-02T05:10:02.440Z,10.80
2023-01-02T05:12:29.268Z,10.80
2023-01-02T05:14:56.103Z,10.90
2023-01-02T05:17:22.914Z,10.90
2023-01-02T05:19:49.683Z,11.00
2023-01-02T05:22:34.976Z,11.00
2023-01-02T05:25:01.792Z,11.00
2023-01-02T05:27:28.662Z,11.00
2023-01-02T05:29:55.479Z,11.00
2023-01-02T05:32:23.143Z,11.10
2023-01-02T05:34:49.922Z,11.10
2023-01-02T05:37:16.744Z,11.20
2023-01-02T05:39:43.563Z,11.10
2023-01-02T05:42:10.402Z,11.10
2023-01-02T05:44:37.285Z,11.40
2023-01-02T05:47:04.157Z,11.20
2023-01-02T05:49:30.975Z,11.20
2023-01-02T05:51:57.735Z,11.20
2023-01-02T05:54:24.591Z,11.20
2023-01-02T05:56:51.386Z,11.30
2023-01-02T05:59:18.205Z,11.30
2023-01-02T06:01:45.133Z,11.30
2023-01-02T06:04:17.616Z,11.30
2023-01-02T06:06:47.093Z,11.40
2023-01-02T06:09:15.982Z,11.40
2023-01-02T06:11:43.025Z,11.40
2023-01-02T06:14:10.688Z,11.50
2023-01-02T06:16:38.374Z,11.50
2023-01-02T06:19:06.501Z,11.50
2023-01-02T06:21:34.097Z,11.50
2023-01-02T06:24:01.051Z,11.50
2023-01-02T06:26:34.581Z,11.50
2023-01-02T06:29:02.880Z,11.50
2023-01-02T06:31:30.401Z,11.50
2023-01-02T06:33:59.114Z,11.60
2023-01-02T06:36:28.832Z,11.50
2023-01-02T06:38:55.745Z,11.50
2023-01-02T06:41:22.732Z,11.60
2023-01-02T06:43:51.067Z,11.60
2023-01-02T06:46:20.021Z,11.60
2023-01-02T06:48:48.280Z,11.70
2023-01-02T06:51:18.153Z,11.60
2023-01-02T06:53:45.920Z,11.60
2023-01-02T06:56:15.391Z,11.70
2023-01-02T06:58:42.261Z,11.60
2023-01-02T07:01:17.802Z,11.60
2023-01-02T07:03:45.051Z,11.60
2023-01-02T07:06:14.341Z,11.70
2023-01-02T07:08:42.854Z,11.70
2023-01-02T07:11:11.315Z,11.70
2023-01-02T07:13:38.721Z,11.70
2023-01-02T07:16:07.789Z,11.80
2023-01-02T07:18:35.251Z,11.80
2023-01-02T07:21:02.053Z,11.80
2023-01-02T07:23:28.873Z,11.70
2023-01-02T07:25:57.885Z,11.70
2023-01-02T07:28:25.139Z,11.70
2023-01-02T07:30:51.980Z,11.70
2023-01-02T07:33:18.782Z,11.80
2023-01-02T07:35:45.735Z,11.80
2023-01-02T07:38:12.585Z,11.80
2023-01-02T07:40:39.488Z,11.80
2023-01-02T07:43:06.346Z,11.80
2023-01-02T07:45:34.603Z,11.90
2023-01-02T07:48:01.562Z,11.90
2023-01-02T07:50:28.501Z,11.90
2023-01-02T07:52:55.419Z,11.90
2023-01-02T07:55:22.270Z,11.90
2023-01-02T07:57:49.171Z,12.00
2023-01-02T08:00:18.305Z,12.00
2023-01-02T08:02:45.614Z,12.00
2023-01-02T08:05:12.749Z,12.00
2023-01-02T08:07:44.626Z,12.00
2023-01-02T08:10:12.537Z,12.10
2023-01-02T08:12:39.956Z,12.00
2023-01-02T08:15:07.293Z,12.10
2023-01-02T08:17:34.229Z,12.10
2023-01-02T08:20:07.251Z,12.10
2023-01-02T08:22:34.732Z,12.10
2023-01-02T08:25:01.751Z,12.20
2023-01-02T08:27:28.577Z,12.20
2023-01-02T08:29:55.431Z,12.20
2023-01-02T08:32:22.278Z,12.10
2023-01-02T08:34:49.157Z,12.10
2023-01-02T08:37:16.034Z,12.20
2023-01-02T08:39:42.781Z,12.20
2023-01-02T08:42:09.839Z,12.20
2023-01-02T08:44:38.204Z,12.20
2023-01-02T08:47:05.735Z,12.20
2023-01-02T08:49:32.527Z,12.30
2023-01-02T08:51:59.335Z,12.30
2023-01-02T08:54:26.390Z,12.20
2023-01-02T08:56:53.212Z,12.30
2023-01-02T08:59:20.078Z,12.40
2023-01-02T09:01:46.922Z,12.30
2023-01-02T09:04:13.979Z,12.30
2023-01-02T09:06:42.473Z,12.30
2023-01-02T09:09:12.533Z,12.40
2023-01-02T09:11:45.169Z,12.40
2023-01-02T09:14:12.072Z,12.40
2023-01-02T09:16:38.940Z,12.40
2023-01-02T09:19:05.862Z,12.40
2023-01-02T09:21:32.671Z,12.50
2023-01-02T09:23:59.725Z,12.40
2023-01-02T09:26:26.870Z,12.50
2023-01-02T09:28:53.705Z,12.50
2023-01-02T09:31:20.969Z,12.50
2023-01-02T09:33:48.555Z,12.50
2023-01-02T09:36:17.864Z,12.40
2023-01-02T09:38:44.707Z,12.40
2023-01-02T09:41:32.169Z,12.40
2023-01-02T09:44:19.038Z,12.50
2023-01-02T09:46:45.829Z,12.50
2023-01-02T09:49:16.556Z,12.50
2023-01-02T09:51:44.322Z,12.50
2023-01-02T09:54:21.974Z,12.50
2023-01-02T09:56:56.019Z,12.50
2023-01-02T09:59:50.274Z,12.50
2023-01-02T10:02:26.144Z,12.50
2023-01-02T10:05:17.873Z,12.50
2023-01-02T10:08:10.665Z,12.50
2023-01-02T10:11:01.216Z,12.50
2023-01-02T10:16:40.254Z,12.40
2023-01-02T10:19:23.050Z,12.40
2023-01-02T10:21:54.348Z,12.30
2023-01-02T10:24:40.192Z,12.20
2023-01-02T10:27:15.137Z,12.10
2023-01-02T10:29:48.462Z,12.00
2023-01-02T10:32:26.254Z,12.00
2023-01-02T10:35:05.548Z,12.00
2023-01-02T10:37:33.707Z,12.10
2023-01-02T10:40:00.806Z,12.00
2023-01-02T10:42:27.835Z,12.10
2023-01-02T10:44:54.695Z,12.00
2023-01-02T10:47:37.556Z,12.00
2023-01-02T10:50:18.943Z,12.00
2023-01-02T10:52:53.173Z,12.10
2023-01-02T10:55:38.861Z,12.10
2023-01-02T10:58:21.912Z,12.00
2023-01-02T11:01:03.940Z,12.00
2023-01-02T11:03:31.075Z,12.10
2023-01-02T11:06:05.889Z,12.00
2023-01-02T11:09:02.676Z,12.00
2023-01-02T11:11:31.227Z,12.10
2023-01-02T11:14:07.429Z,12.10
2023-01-02T11:16:38.451Z,12.00
2023-01-02T11:19:07.449Z,12.00
2023-01-02T11:21:40.450Z,12.10
2023-01-02T11:24:19.503Z,12.00
2023-01-02T11:26:50.431Z,12.00
2023-01-02T11:29:32.929Z,11.90
2023-01-02T11:32:02.364Z,11.90
2023-01-02T11:34:40.565Z,11.80
2023-01-02T11:37:13.341Z,11.70
2023-01-02T11:39:40.678Z,11.60
2023-01-02T11:42:37.313Z,11.50
2023-01-02T11:45:09.722Z,11.60
2023-01-02T11:47:45.301Z,11.40
2023-01-02T11:50:36.505Z,11.40
2023-01-02T11:53:13.876Z,11.30
2023-01-02T11:56:07.653Z,11.20
2023-01-02T11:58:41.612Z,11.00
2023-01-02T12:01:27.100Z,11.00
2023-01-02T12:03:54.579Z,10.90
2023-01-02T12:06:34.472Z,10.80
2023-01-02T12:09:37.115Z,10.80
2023-01-02T12:12:31.992Z,10.60
2023-01-02T12:15:26.517Z,10.60
2023-01-02T12:18:18.128Z,10.50
2023-01-02T12:21:10.460Z,10.60
2023-01-02T12:24:14.017Z,10.50
2023-01-02T12:26:54.186Z,10.40
2023-01-02T12:29:46.277Z,10.40
2023-01-02T12:32:22.133Z,10.20
2023-01-02T12:35:04.580Z,10.20
2023-01-02T12:37:50.418Z,10.10
2023-01-02T12:40:25.866Z,10.20
2023-01-02T12:43:03.945Z,10.10
2023-01-02T12:46:28.082Z,10.20
2023-01-02T12:49:00.937Z,10.10
2023-01-02T12:52:09.004Z,10.00
2023-01-02T12:54:54.167Z,10.00
2023-01-02T12:57:23.562Z,10.00
2023-01-02T13:00:28.282Z,9.90
2023-01-02T13:03:25.719Z,10.00
2023-01-02T13:06:04.734Z,10.00
2023-01-02T13:09:03.717Z,9.90
2023-01-02T13:11:34.559Z,9.80
2023-01-02T13:14:03.785Z,9.80
2023-01-02T13:16:31.042Z,9.90
2023-01-02T13:19:21.138Z,9.70
2023-01-02T13:21:52.387Z,9.70
2023-01-02T13:24:23.848Z,9.70
2023-01-02T13:26:53.305Z,9.70
2023-01-02T13:29:25.830Z,9.60
2023-01-02T13:31:55.010Z,9.70
2023-01-02T13:34:30.988Z,9.70
2023-01-02T13:37:08.050Z,9.70
2023-01-02T13:39:40.976Z,9.60
2023-01-02T13:42:30.233Z,9.50
2023-01-02T13:44:59.343Z,9.50
2023-01-02T13:47:38.177Z,9.50
2023-01-02T13:50:22.748Z,9.40
2023-01-02T13:53:23.876Z,9.30
2023-01-02T13:56:04.863Z,9.30
2023-01-02T13:58:44.922Z,9.30
2023-01-02T14:01:42.074Z,9.30
2023-01-02T14:04:19.441Z,9.20
2023-01-02T14:06:53.781Z,9.30
2023-01-02T14:09:22.960Z,9.20
2023-01-02T14:12:01.431Z,9.20
2023-01-02T14:14:43.116Z,9.20
2023-01-02T14:17:32.436Z,9.20
2023-01-02T14:20:18.541Z,9.10
2023-01-02T14:23:13.490Z,9.00
2023-01-02T14:25:49.299Z,9.00
2023-01-02T14:28:26.985Z,9.00
2023-01-02T14:30:55.139Z,9.00
2023-01-02T14:33:34.177Z,8.90
2023-01-02T14:36:07.745Z,8.90
2023-01-02T14:38:53.920Z,8.90
2023-01-02T14:42:10.598Z,8.90
2023-01-02T14:44:41.738Z,8.90
2023-01-02T14:47:16.531Z,8.90
2023-01-02T14:49:44.673Z,9.00
2023-01-02T14:52:29.244Z,8.90
2023-01-02T14:55:10.542Z,8.90
2023-01-02T14:57:40.065Z,8.80
2023-01-02T15:00:17.500Z,9.00
2023-01-02T15:02:48.396Z,8.80
2023-01-02T15:05:26.868Z,8.90
2023-01-02T15:07:56.425Z,8.80
2023-01-02T15:10:24.017Z,8.80
2023-01-02T15:13:06.278Z,8.70
2023-01-02T15:15:59.946Z,8.80
2023-01-02T15:18:33.470Z,8.80
2023-01-02T15:21:08.911Z,8.90
2023-01-02T15:23:37.349Z,9.00
2023-01-02T15:26:31.685Z,9.00
2023-01-02T15:29:20.688Z,8.80
2023-01-02T15:32:00.642Z,8.80
2023-01-02T15:34:30.870Z,8.70
2023-01-02T15:37:02.761Z,8.70
2023-01-02T15:39:34.260Z,8.70
2023-01-02T15:42:06.613Z,8.70
2023-01-02T15:44:57.643Z,8.70
2023-01-02T15:47:28.192Z,8.70
2023-01-02T15:49:57.429Z,8.70
2023-01-02T15:52:28.665Z,8.70
2023-01-02T15:54:56.426Z,8.60
2023-01-02T15:57:29.566Z,8.60
2023-01-02T15:59:56.484Z,8.60
2023-01-02T16:02:52.825Z,8.60
2023-01-02T16:05:20.365Z,8.60
2023-01-02T16:07:53.778Z,8.60
2023-01-02T16:10:23.723Z,8.60
2023-01-02T16:13:30.275Z,8.60
2023-01-02T16:16:15.518Z,8.50
2023-01-02T16:18:45.660Z,8.60
2023-01-02T16:21:14.952Z,8.60
2023-01-02T16:23:49.074Z,8.60
2023-01-02T16:26:18.652Z,8.70
2023-01-02T16:28:45.750Z,8.70
2023-01-02T16:31:16.937Z,8.60
2023-01-02T16:33:45.771Z,8.60
2023-01-02T16:36:15.540Z,8.60
2023-01-02T16:39:01.526Z,8.60
2023-01-02T16:41:34.465Z,8.60
2023-01-02T16:44:02.291Z,8.70
2023-01-02T16:46:29.891Z,8.60
2023-01-02T16:49:04.692Z,8.60
2023-01-02T16:51:32.491Z,8.60
2023-01-02T16:53:59.760Z,8.60
2023-01-02T16:56:26.583Z,8.70
2023-01-02T16:58:53.442Z,8.70
2023-01-02T17:01:22.351Z,8.70
2023-01-02T17:03:49.233Z,8.80
2023-01-02T17:06:18.742Z,8.80
2023-01-02T17:08:45.711Z,8.80
2023-01-02T17:11:21.495Z,8.80
2023-01-02T17:13:48.761Z,8.80
2023-01-02T17:16:16.697Z,8.80
2023-01-02T17:18:43.676Z,8.80
2023-01-02T17:21:10.771Z,8.80
2023-01-02T17:23:37.992Z,8.80
2023-01-02T17:26:05.317Z,8.80
2023-01-02T17:28:32.156Z,8.80
2023-01-02T17:30:58.975Z,8.80
2023-01-02T17:33:25.836Z,8.80
2023-01-02T17:35:52.686Z,8.80
2023-01-02T17:38:19.503Z,8.80
2023-01-02T17:40:46.374Z,8.90
2023-01-02T17:43:13.216Z,8.80
2023-01-02T17:45:42.481Z,8.80
2023-01-02T17:48:12.372Z,8.80
2023-01-02T17:50:41.182Z,8.70
2023-01-02T17:53:08.573Z,8.80
2023-01-02T17:55:35.633Z,8.80
2023-01-02T17:58:03.573Z,8.70
2023-01-02T18:00:30.402Z,8.70
2023-01-02T18:02:57.333Z,8.70
2023-01-02T18:05:24.194Z,8.70
2023-01-02T18:07:51.016Z,8.70
2023-01-02T18:10:20.940Z,8.70
2023-01-02T18:12:49.810Z,8.60
2023-01-02T18:15:19.665Z,8.70
2023-01-02T18:17:46.901Z,8.60
2023-01-02T18:20:16.651Z,8.60
2023-01-02T18:22:49.422Z,8.60
2023-01-02T18:25:24.492Z,8.70
2023-01-02T18:27:52.631Z,8.70
2023-01-02T18:30:22.757Z,8.70
2023-01-02T18:32:52.909Z,8.70
2023-01-02T18:38:28.739Z,8.50
2023-01-02T18:40:55.773Z,8.60
2023-01-02T18:43:28.253Z,8.80
2023-01-02T18:45:58.627Z,8.60
2023-01-02T18:48:26.229Z,8.60
2023-01-02T18:51:01.429Z,8.60
2023-01-02T18:53:44.388Z,8.60
2023-01-02T18:56:29.689Z,8.60
2023-01-02T18:59:14.225Z,8.60
2023-01-02T19:01:47.839Z,8.60
2023-01-02T19:04:27.393Z,8.60
2023-01-02T19:07:01.383Z,8.60
2023-01-02T19:09:34.682Z,8.60
2023-01-02T19:12:34.416Z,8.60
2023-01-02T19:15:22.107Z,8.50
2023-01-02T19:17:49.006Z,8.50
2023-01-02T19:20:16.897Z,8.50
2023-01-02T19:22:44.225Z,8.50
2023-01-02T19:25:19.839Z,8.50
2023-01-02T19:27:47.175Z,8.60
2023-01-02T19:30:22.967Z,8.50
2023-01-02T19:32:49.835Z,8.50
2023-01-02T19:35:25.838Z,8.40
2023-01-02T19:37:52.857Z,8.40
2023-01-02T19:40:22.511Z,8.30
2023-01-02T19:42:54.002Z,8.30
2023-01-02T19:45:26.325Z,8.30
2023-01-02T19:47:54.188Z,8.20
2023-01-02T19:50:24.419Z,8.20
2023-01-02T19:52:51.897Z,8.10
2023-01-02T19:55:19.132Z,8.00
2023-01-02T19:57:47.217Z,8.00
2023-01-02T20:00:16.611Z,7.90
2023-01-02T20:02:49.562Z,7.80
2023-01-02T20:05:21.425Z,7.80
2023-01-02T20:07:50.811Z,7.70
2023-01-02T20:10:18.253Z,7.70
2023-01-02T20:12:45.588Z,7.70
2023-01-02T20:15:26.049Z,7.70
2023-01-02T20:17:53.961Z,7.70
2023-01-02T20:20:23.779Z,7.70
2023-01-02T20:22:51.716Z,7.60
2023-01-02T20:25:21.151Z,7.60
2023-01-02T20:27:48.221Z,7.50
2023-01-02T20:30:20.300Z,7.60
2023-01-02T20:32:50.959Z,7.60
2023-01-02T20:35:18.067Z,7.60
2023-01-02T20:37:45.118Z,7.50
2023-01-02T20:40:12.459Z,7.50
2023-01-02T20:42:39.571Z,7.50
2023-01-02T20:45:07.601Z,7.40
2023-01-02T20:47:36.280Z,7.40
2023-01-02T20:50:03.453Z,7.40
2023-01-02T20:52:30.298Z,7.30
2023-01-02T20:54:57.290Z,7.30
2023-01-02T20:57:24.198Z,7.30
2023-01-02T20:59:51.111Z,7.30
2023-01-02T21:02:18.104Z,7.50
2023-01-02T21:04:45.031Z,7.40
2023-01-02T21:07:11.897Z,7.30
2023-01-02T21:09:38.723Z,7.20
2023-01-02T21:12:25.641Z,7.30
2023-01-02T21:14:52.681Z,7.20
2023-01-02T21:17:19.448Z,7.20
2023-01-02T21:19:46.356Z,7.20
2023-01-02T21:22:13.146Z,7.20
2023-01-02T21:24:40.003Z,7.20
2023-01-02T21:27:12.805Z,7.20
2023-01-02T21:29:40.330Z,7.20
2023-01-02T21:32:07.137Z,7.20
2023-01-02T21:34:33.965Z,7.10
2023-01-02T21:37:00.971Z,7.10
2023-01-02T21:39:27.843Z,7.10
2023-01-02T21:42:13.407Z,7.10
2023-01-02T21:44:40.199Z,7.20
2023-01-02T21:47:07.367Z,7.20
2023-01-02T21:49:34.296Z,7.20
2023-01-02T21:52:01.670Z,7.10
2023-01-02T21:54:28.683Z,7.10
2023-01-02T21:56:55.747Z,7.00
2023-01-02T21:59:25.338Z,7.00
2023-01-02T22:01:53.580Z,6.90
2023-01-02T22:04:21.408Z,6.90
2023-01-02T22:07:29.562Z,6.90
2023-01-02T22:09:39.188Z,6.80
2023-01-02T22:12:07.164Z,6.80
2023-01-02T22:14:36.745Z,6.80
2023-01-02T22:17:06.722Z,6.70
2023-01-02T22:19:34.381Z,6.70
2023-01-02T22:22:01.485Z,6.70
2023-01-02T22:24:28.713Z,6.70
2023-01-02T22:27:02.294Z,6.70
2023-01-02T22:30:09.188Z,6.60
2023-01-02T22:32:16.950Z,6.50
2023-01-02T22:34:44.372Z,6.60
2023-01-02T22:37:16.913Z,6.60
2023-01-02T22:39:45.388Z,6.60
2023-01-02T22:42:59.567Z,6.60
2023-01-02T22:45:27.598Z,6.50
2023-01-02T22:47:58.644Z,6.50
2023-01-02T22:50:29.151Z,6.40
2023-01-02T22:52:56.309Z,6.40
2023-01-02T22:55:24.043Z,6.40
2023-01-02T22:57:52.106Z,6.40
2023-01-02T23:00:24.477Z,6.40
2023-01-02T23:02:51.468Z,6.60
2023-01-02T23:05:20.704Z,6.40
2023-01-02T23:07:49.644Z,6.50
2023-01-02T23:10:17.105Z,6.50
2023-01-02T23:12:43.978Z,6.40
2023-01-02T23:15:13.260Z,6.40
2023-01-02T23:17:59.144Z,6.40
2023-01-02T23:20:26.780Z,6.40
2023-01-02T23:22:53.892Z,6.40
2023-01-02T23:25:20.930Z,6.40
2023-01-02T23:27:48.309Z,6.30
2023-01-02T23:30:15.547Z,6.20
2023-01-02T23:32:42.446Z,6.10
2023-01-02T23:35:09.928Z,6.10
2023-01-02T23:37:36.849Z,6.30
2023-01-02T23:40:04.125Z,6.30
2023-01-02T23:42:30.905Z,6.10
2023-01-02T23:44:57.779Z,6.10
2023-01-02T23:47:24.614Z,6.10
2023-01-02T23:49:51.392Z,6.00
2023-01-02T23:52:18.192Z,6.00
2023-01-02T23:54:45.014Z,6.10
2023-01-02T23:57:11.778Z,6.20
2023-01-02T23:59:38.602Z,6.20
